sensor_id;sensor_type;location;lat;lon;timestamp;P1;P2;P0
73749;PMS7003;62058;48.406;-4.514;2023-02-15T00:01:33;17.50;13.00;11.00
73749;PMS7003;62058;48.406;-4.514;2023-02-15T00:04:00;20.00;18.50;15.50
73749;PMS7003;62058;48.406;-4.514;2023-02-15T00:06:26;20.00;17.50;14.00
73749;PMS7003;62058;48.406;-4.514;2023-02-15T00:08:51;20.75;17.25;15.25
73749;PMS7003;62058;48.406;-4.514;2023-02-15T00:11:17;17.50;16.25;14.00
73749;PMS7003;62058;48.406;-4.514;2023-02-15T00:14:05;23.75;19.00;15.75
73749;PMS7003;62058;48.406;-4.514;2023-02-15T00:16:32;18.75;14.75;12.75
73749;PMS7003;62058;48.406;-4.514;2023-02-15T00:18:58;21.75;17.00;14.75
73749;PMS7003;62058;48.406;-4.514;2023-02-15T00:21:26;27.50;24.00;16.50
73749;PMS7003;62058;48.406;-4.514;2023-02-15T00:23:56;24.25;19.00;15.00
73749;PMS7003;62058;48.406;-4.514;2023-02-15T00:26:23;20.00;14.00;12.75
73749;PMS7003;62058;48.406;-4.514;2023-02-15T00:28:49;17.50;12.75;11.25
73749;PMS7003;62058;48.406;-4.514;2023-02-15T00:31:14;20.75;18.25;13.75
73749;PMS7003;62058;48.406;-4.514;2023-02-15T00:33:40;16.75;15.75;13.75
73749;PMS7003;62058;48.406;-4.514;2023-02-15T00:36:06;19.75;15.50;13.75
73749;PMS7003;62058;48.406;-4.514;2023-02-15T00:38:33;16.50;14.50;12.25
73749;PMS7003;62058;48.406;-4.514;2023-02-15T00:41:00;20.75;16.25;14.00
73749;PMS7003;62058;48.406;-4.514;2023-02-15T00:43:27;17.00;14.75;11.50
73749;PMS7003;62058;48.406;-4.514;2023-02-15T00:45:54;19.50;17.25;14.00
73749;PMS7003;62058;48.406;-4.514;2023-02-15T00:48:20;21.25;15.00;13.75
73749;PMS7003;62058;48.406;-4.514;2023-02-15T00:50:48;23.25;19.50;14.75
73749;PMS7003;62058;48.406;-4.514;2023-02-15T00:53:15;18.75;15.25;15.00
73749;PMS7003;62058;48.406;-4.514;2023-02-15T00:55:40;18.50;16.25;13.75
73749;PMS7003;62058;48.406;-4.514;2023-02-15T00:58:06;18.00;15.25;13.75
73749;PMS7003;62058;48.406;-4.514;2023-02-15T01:00:33;18.50;16.75;13.50
73749;PMS7003;62058;48.406;-4.514;2023-02-15T01:02:58;22.75;18.50;14.00
73749;PMS7003;62058;48.406;-4.514;2023-02-15T01:05:24;21.25;15.25;12.75
73749;PMS7003;62058;48.406;-4.514;2023-02-15T01:07:49;19.25;19.25;15.50
73749;PMS7003;62058;48.406;-4.514;2023-02-15T01:10:14;20.75;16.75;14.75
73749;PMS7003;62058;48.406;-4.514;2023-02-15T01:12:40;18.50;16.50;12.00
73749;PMS7003;62058;48.406;-4.514;2023-02-15T01:15:05;22.00;20.25;17.25
73749;PMS7003;62058;48.406;-4.514;2023-02-15T01:17:31;24.50;20.00;14.50
73749;PMS7003;62058;48.406;-4.514;2023-02-15T01:19:57;17.50;13.25;11.00
73749;PMS7003;62058;48.406;-4.514;2023-02-15T01:22:22;25.50;18.75;15.75
73749;PMS7003;62058;48.406;-4.514;2023-02-15T01:24:51;30.00;19.75;14.75
73749;PMS7003;62058;48.406;-4.514;2023-02-15T01:27:16;27.75;22.25;17.25
73749;PMS7003;62058;48.406;-4.514;2023-02-15T01:29:42;26.00;20.00;15.75
73749;PMS7003;62058;48.406;-4.514;2023-02-15T01:32:07;22.00;17.75;16.00
73749;PMS7003;62058;48.406;-4.514;2023-02-15T01:34:32;23.00;19.50;16.25
73749;PMS7003;62058;48.406;-4.514;2023-02-15T01:36:58;18.25;15.75;13.50
73749;PMS7003;62058;48.406;-4.514;2023-02-15T01:39:23;23.00;18.25;13.25
73749;PMS7003;62058;48.406;-4.514;2023-02-15T01:41:49;26.25;20.50;17.00
73749;PMS7003;62058;48.406;-4.514;2023-02-15T01:47:34;25.00;20.00;16.75
73749;PMS7003;62058;48.406;-4.514;2023-02-15T01:52:40;18.75;16.00;13.50
73749;PMS7003;62058;48.406;-4.514;2023-02-15T01:55:21;20.25;16.50;13.50
73749;PMS7003;62058;48.406;-4.514;2023-02-15T01:57:48;17.25;12.00;10.25
73749;PMS7003;62058;48.406;-4.514;2023-02-15T02:00:15;23.50;21.25;18.00
73749;PMS7003;62058;48.406;-4.514;2023-02-15T02:02:42;22.75;14.25;11.75
73749;PMS7003;62058;48.406;-4.514;2023-02-15T02:05:10;21.50;16.75;15.00
73749;PMS7003;62058;48.406;-4.514;2023-02-15T02:07:37;19.25;17.00;14.00
73749;PMS7003;62058;48.406;-4.514;2023-02-15T02:10:06;19.00;15.25;14.25
73749;PMS7003;62058;48.406;-4.514;2023-02-15T02:12:35;24.50;17.00;14.25
73749;PMS7003;62058;48.406;-4.514;2023-02-15T02:15:03;22.50;16.00;15.00
73749;PMS7003;62058;48.406;-4.514;2023-02-15T02:25:37;16.25;14.00;13.00
73749;PMS7003;62058;48.406;-4.514;2023-02-15T02:28:21;20.25;15.75;12.00
73749;PMS7003;62058;48.406;-4.514;2023-02-15T02:36:32;23.75;18.00;13.75
73749;PMS7003;62058;48.406;-4.514;2023-02-15T02:39:23;16.50;15.25;12.00
73749;PMS7003;62058;48.406;-4.514;2023-02-15T02:44:46;17.75;16.25;13.00
73749;PMS7003;62058;48.406;-4.514;2023-02-15T02:49:44;22.25;19.25;15.00
73749;PMS7003;62058;48.406;-4.514;2023-02-15T02:55:01;13.00;7.25;4.00
73749;PMS7003;62058;48.406;-4.514;2023-02-15T02:57:30;28.75;23.00;18.00
73749;PMS7003;62058;48.406;-4.514;2023-02-15T02:59:58;25.25;21.25;16.75
73749;PMS7003;62058;48.406;-4.514;2023-02-15T03:02:30;25.50;22.25;17.50
73749;PMS7003;62058;48.406;-4.514;2023-02-15T03:05:02;26.50;20.50;14.75
73749;PMS7003;62058;48.406;-4.514;2023-02-15T03:07:31;35.00;27.25;19.75
73749;PMS7003;62058;48.406;-4.514;2023-02-15T03:10:01;28.50;21.00;17.25
73749;PMS7003;62058;48.406;-4.514;2023-02-15T03:12:33;31.25;22.75;18.50
73749;PMS7003;62058;48.406;-4.514;2023-02-15T03:15:01;26.25;21.50;14.25
73749;PMS7003;62058;48.406;-4.514;2023-02-15T03:17:38;23.25;19.75;15.75
73749;PMS7003;62058;48.406;-4.514;2023-02-15T03:20:14;23.00;19.75;17.50
73749;PMS7003;62058;48.406;-4.514;2023-02-15T03:22:48;29.50;22.00;16.00
73749;PMS7003;62058;48.406;-4.514;2023-02-15T03:25:22;22.00;18.25;16.25
73749;PMS7003;62058;48.406;-4.514;2023-02-15T03:27:54;24.50;16.25;12.75
73749;PMS7003;62058;48.406;-4.514;2023-02-15T03:30:24;29.75;23.75;19.50
73749;PMS7003;62058;48.406;-4.514;2023-02-15T03:32:51;25.25;22.25;18.00
73749;PMS7003;62058;48.406;-4.514;2023-02-15T03:35:19;21.25;19.75;16.50
73749;PMS7003;62058;48.406;-4.514;2023-02-15T03:37:48;26.50;18.25;15.25
73749;PMS7003;62058;48.406;-4.514;2023-02-15T03:40:23;23.50;16.75;15.25
73749;PMS7003;62058;48.406;-4.514;2023-02-15T03:45:47;23.75;21.25;17.75
73749;PMS7003;62058;48.406;-4.514;2023-02-15T03:48:23;24.75;23.75;18.00
73749;PMS7003;62058;48.406;-4.514;2023-02-15T03:50:54;23.25;22.25;18.25
73749;PMS7003;62058;48.406;-4.514;2023-02-15T03:53:41;23.50;18.75;15.00
73749;PMS7003;62058;48.406;-4.514;2023-02-15T03:56:08;30.75;20.50;18.00
73749;PMS7003;62058;48.406;-4.514;2023-02-15T03:58:34;27.75;24.25;18.75
73749;PMS7003;62058;48.406;-4.514;2023-02-15T04:04:09;34.25;27.25;20.50
73749;PMS7003;62058;48.406;-4.514;2023-02-15T04:06:44;9.50;6.25;2.00
73749;PMS7003;62058;48.406;-4.514;2023-02-15T04:09:09;24.25;17.50;12.25
73749;PMS7003;62058;48.406;-4.514;2023-02-15T04:11:53;31.75;28.00;20.00
73749;PMS7003;62058;48.406;-4.514;2023-02-15T04:14:18;28.25;21.50;17.75
73749;PMS7003;62058;48.406;-4.514;2023-02-15T04:17:05;27.75;22.25;19.50
73749;PMS7003;62058;48.406;-4.514;2023-02-15T04:19:31;27.00;24.00;17.25
73749;PMS7003;62058;48.406;-4.514;2023-02-15T04:22:15;26.50;23.00;19.25
73749;PMS7003;62058;48.406;-4.514;2023-02-15T04:24:59;32.00;27.25;20.25
73749;PMS7003;62058;48.406;-4.514;2023-02-15T04:27:37;30.00;24.25;20.75
73749;PMS7003;62058;48.406;-4.514;2023-02-15T04:30:04;22.00;20.75;16.50
73749;PMS7003;62058;48.406;-4.514;2023-02-15T04:32:30;34.00;29.00;23.75
73749;PMS7003;62058;48.406;-4.514;2023-02-15T04:34:56;28.25;24.50;19.50
73749;PMS7003;62058;48.406;-4.514;2023-02-15T04:37:21;29.25;27.00;20.25
73749;PMS7003;62058;48.406;-4.514;2023-02-15T04:39:47;26.75;23.75;17.00
73749;PMS7003;62058;48.406;-4.514;2023-02-15T04:42:12;34.00;29.25;20.00
73749;PMS7003;62058;48.406;-4.514;2023-02-15T04:44:37;35.00;28.75;20.00
73749;PMS7003;62058;48.406;-4.514;2023-02-15T04:47:03;28.50;26.25;19.75
73749;PMS7003;62058;48.406;-4.514;2023-02-15T04:49:28;28.50;21.50;17.75
73749;PMS7003;62058;48.406;-4.514;2023-02-15T04:51:54;32.25;26.50;20.00
73749;PMS7003;62058;48.406;-4.514;2023-02-15T04:54:19;30.75;25.00;18.00
73749;PMS7003;62058;48.406;-4.514;2023-02-15T04:56:44;27.00;25.25;17.25
73749;PMS7003;62058;48.406;-4.514;2023-02-15T04:59:10;30.00;23.50;21.00
73749;PMS7003;62058;48.406;-4.514;2023-02-15T05:01:36;43.00;32.75;23.00
73749;PMS7003;62058;48.406;-4.514;2023-02-15T05:04:02;31.25;26.25;20.00
73749;PMS7003;62058;48.406;-4.514;2023-02-15T05:06:27;34.25;28.00;20.00
73749;PMS7003;62058;48.406;-4.514;2023-02-15T05:08:53;34.75;32.25;22.00
73749;PMS7003;62058;48.406;-4.514;2023-02-15T05:11:19;28.00;24.50;20.25
73749;PMS7003;62058;48.406;-4.514;2023-02-15T05:13:44;28.00;25.25;19.75
73749;PMS7003;62058;48.406;-4.514;2023-02-15T05:16:09;30.75;24.25;20.00
73749;PMS7003;62058;48.406;-4.514;2023-02-15T05:18:35;33.75;29.50;20.50
73749;PMS7003;62058;48.406;-4.514;2023-02-15T05:21:00;32.75;29.75;22.75
73749;PMS7003;62058;48.406;-4.514;2023-02-15T05:23:25;30.00;26.75;20.50
73749;PMS7003;62058;48.406;-4.514;2023-02-15T05:25:51;29.00;25.00;18.75
73749;PMS7003;62058;48.406;-4.514;2023-02-15T05:28:36;32.25;26.00;20.50
73749;PMS7003;62058;48.406;-4.514;2023-02-15T05:31:15;38.00;29.25;22.00
73749;PMS7003;62058;48.406;-4.514;2023-02-15T05:33:43;37.75;31.75;22.00
73749;PMS7003;62058;48.406;-4.514;2023-02-15T05:36:09;39.50;30.75;20.00
73749;PMS7003;62058;48.406;-4.514;2023-02-15T05:38:35;37.00;29.50;21.00
73749;PMS7003;62058;48.406;-4.514;2023-02-15T05:41:04;26.00;22.00;16.75
73749;PMS7003;62058;48.406;-4.514;2023-02-15T05:43:31;30.50;25.75;20.00
73749;PMS7003;62058;48.406;-4.514;2023-02-15T05:45:57;34.50;30.00;22.50
73749;PMS7003;62058;48.406;-4.514;2023-02-15T05:48:23;29.75;26.50;19.00
73749;PMS7003;62058;48.406;-4.514;2023-02-15T05:51:00;31.75;27.25;20.00
73749;PMS7003;62058;48.406;-4.514;2023-02-15T05:53:31;36.25;30.50;22.00
73749;PMS7003;62058;48.406;-4.514;2023-02-15T05:55:58;30.00;27.25;21.50
73749;PMS7003;62058;48.406;-4.514;2023-02-15T05:58:28;32.75;24.00;19.50
73749;PMS7003;62058;48.406;-4.514;2023-02-15T06:00:55;29.50;25.75;21.00
73749;PMS7003;62058;48.406;-4.514;2023-02-15T06:03:20;30.00;25.50;19.00
73749;PMS7003;62058;48.406;-4.514;2023-02-15T06:05:47;35.75;27.25;18.50
73749;PMS7003;62058;48.406;-4.514;2023-02-15T06:08:12;32.25;27.00;20.00
73749;PMS7003;62058;48.406;-4.514;2023-02-15T06:10:37;35.50;30.25;21.00
73749;PMS7003;62058;48.406;-4.514;2023-02-15T06:13:05;32.50;29.00;21.50
73749;PMS7003;62058;48.406;-4.514;2023-02-15T06:15:30;37.00;30.25;20.50
73749;PMS7003;62058;48.406;-4.514;2023-02-15T06:17:56;34.75;27.00;20.00
73749;PMS7003;62058;48.406;-4.514;2023-02-15T06:20:21;35.00;28.00;21.00
73749;PMS7003;62058;48.406;-4.514;2023-02-15T06:22:47;44.00;31.25;22.25
73749;PMS7003;62058;48.406;-4.514;2023-02-15T06:25:12;33.50;29.25;21.75
73749;PMS7003;62058;48.406;-4.514;2023-02-15T06:27:40;38.00;29.75;22.00
73749;PMS7003;62058;48.406;-4.514;2023-02-15T06:30:07;33.25;29.25;22.25
73749;PMS7003;62058;48.406;-4.514;2023-02-15T06:32:33;36.25;30.25;22.75
73749;PMS7003;62058;48.406;-4.514;2023-02-15T06:34:58;36.00;31.00;21.75
73749;PMS7003;62058;48.406;-4.514;2023-02-15T06:37:23;41.50;34.75;27.00
73749;PMS7003;62058;48.406;-4.514;2023-02-15T06:39:49;32.75;26.00;21.50
73749;PMS7003;62058;48.406;-4.514;2023-02-15T06:42:14;47.25;34.50;26.00
73749;PMS7003;62058;48.406;-4.514;2023-02-15T06:44:39;37.25;33.50;22.00
73749;PMS7003;62058;48.406;-4.514;2023-02-15T06:47:05;34.00;30.75;21.75
73749;PMS7003;62058;48.406;-4.514;2023-02-15T06:49:30;32.75;30.75;21.00
73749;PMS7003;62058;48.406;-4.514;2023-02-15T06:51:56;37.00;30.75;22.00
73749;PMS7003;62058;48.406;-4.514;2023-02-15T06:54:21;38.00;31.00;21.25
73749;PMS7003;62058;48.406;-4.514;2023-02-15T06:56:49;35.75;29.50;22.00
73749;PMS7003;62058;48.406;-4.514;2023-02-15T06:59:14;37.50;33.25;22.50
73749;PMS7003;62058;48.406;-4.514;2023-02-15T07:01:40;42.00;33.00;23.00
73749;PMS7003;62058;48.406;-4.514;2023-02-15T07:04:05;38.00;33.00;24.00
73749;PMS7003;62058;48.406;-4.514;2023-02-15T07:06:34;37.75;31.75;23.00
73749;PMS7003;62058;48.406;-4.514;2023-02-15T07:09:00;44.00;32.75;23.50
73749;PMS7003;62058;48.406;-4.514;2023-02-15T07:11:25;30.75;28.00;21.00
73749;PMS7003;62058;48.406;-4.514;2023-02-15T07:14:09;40.25;31.75;22.75
73749;PMS7003;62058;48.406;-4.514;2023-02-15T07:16:35;44.00;33.00;22.25
73749;PMS7003;62058;48.406;-4.514;2023-02-15T07:19:00;34.50;27.00;20.25
73749;PMS7003;62058;48.406;-4.514;2023-02-15T07:21:25;38.00;31.25;23.75
73749;PMS7003;62058;48.406;-4.514;2023-02-15T07:23:51;33.50;30.75;21.00
73749;PMS7003;62058;48.406;-4.514;2023-02-15T07:26:16;36.25;31.25;21.00
73749;PMS7003;62058;48.406;-4.514;2023-02-15T07:28:42;40.25;32.00;22.25
73749;PMS7003;62058;48.406;-4.514;2023-02-15T07:31:07;39.25;33.00;23.00
73749;PMS7003;62058;48.406;-4.514;2023-02-15T07:33:33;10.75;1.75;1.75
73749;PMS7003;62058;48.406;-4.514;2023-02-15T07:36:00;36.00;31.00;22.50
73749;PMS7003;62058;48.406;-4.514;2023-02-15T07:38:31;35.50;29.50;21.75
73749;PMS7003;62058;48.406;-4.514;2023-02-15T07:41:03;35.00;30.50;22.00
73749;PMS7003;62058;48.406;-4.514;2023-02-15T07:43:30;36.00;29.75;22.00
73749;PMS7003;62058;48.406;-4.514;2023-02-15T07:46:02;42.25;31.50;22.75
73749;PMS7003;62058;48.406;-4.514;2023-02-15T07:48:29;39.25;34.00;24.25
73749;PMS7003;62058;48.406;-4.514;2023-02-15T07:50:58;35.00;29.75;21.25
73749;PMS7003;62058;48.406;-4.514;2023-02-15T07:53:24;33.25;28.50;20.25
73749;PMS7003;62058;48.406;-4.514;2023-02-15T07:55:50;35.75;29.25;21.75
73749;PMS7003;62058;48.406;-4.514;2023-02-15T07:58:15;42.00;34.75;23.75
73749;PMS7003;62058;48.406;-4.514;2023-02-15T08:00:40;32.00;29.25;21.50
73749;PMS7003;62058;48.406;-4.514;2023-02-15T08:03:27;36.75;30.00;22.00
73749;PMS7003;62058;48.406;-4.514;2023-02-15T08:05:57;36.75;31.50;21.00
73749;PMS7003;62058;48.406;-4.514;2023-02-15T08:08:25;38.00;33.00;23.25
73749;PMS7003;62058;48.406;-4.514;2023-02-15T08:11:04;31.50;28.50;23.00
73749;PMS7003;62058;48.406;-4.514;2023-02-15T08:14:03;34.50;28.00;21.00
73749;PMS7003;62058;48.406;-4.514;2023-02-15T08:16:36;41.75;31.50;23.00
73749;PMS7003;62058;48.406;-4.514;2023-02-15T08:19:11;38.25;31.50;24.75
73749;PMS7003;62058;48.406;-4.514;2023-02-15T08:22:04;41.25;31.50;23.00
73749;PMS7003;62058;48.406;-4.514;2023-02-15T08:24:33;36.00;30.75;22.75
73749;PMS7003;62058;48.406;-4.514;2023-02-15T08:27:02;38.50;31.50;23.00
73749;PMS7003;62058;48.406;-4.514;2023-02-15T08:29:28;32.25;30.25;20.75
73749;PMS7003;62058;48.406;-4.514;2023-02-15T08:31:56;31.25;27.50;19.25
73749;PMS7003;62058;48.406;-4.514;2023-02-15T08:34:26;38.00;31.75;23.75
73749;PMS7003;62058;48.406;-4.514;2023-02-15T08:36:53;32.25;31.00;23.25
73749;PMS7003;62058;48.406;-4.514;2023-02-15T08:39:18;32.75;30.00;21.00
73749;PMS7003;62058;48.406;-4.514;2023-02-15T08:41:44;41.50;30.50;21.00
73749;PMS7003;62058;48.406;-4.514;2023-02-15T08:44:11;35.25;31.25;22.00
73749;PMS7003;62058;48.406;-4.514;2023-02-15T08:46:41;35.00;33.50;22.50
73749;PMS7003;62058;48.406;-4.514;2023-02-15T08:49:08;36.50;30.00;22.75
73749;PMS7003;62058;48.406;-4.514;2023-02-15T08:51:35;36.00;31.00;23.00
73749;PMS7003;62058;48.406;-4.514;2023-02-15T08:54:03;33.50;29.00;21.00
73749;PMS7003;62058;48.406;-4.514;2023-02-15T08:56:34;34.50;31.75;23.00
73749;PMS7003;62058;48.406;-4.514;2023-02-15T08:59:02;31.75;25.75;20.75
73749;PMS7003;62058;48.406;-4.514;2023-02-15T09:01:29;34.25;30.50;22.00
73749;PMS7003;62058;48.406;-4.514;2023-02-15T09:03:57;31.75;26.50;20.75
73749;PMS7003;62058;48.406;-4.514;2023-02-15T09:06:23;44.75;35.00;26.00
73749;PMS7003;62058;48.406;-4.514;2023-02-15T09:08:49;35.75;29.50;21.50
73749;PMS7003;62058;48.406;-4.514;2023-02-15T09:11:19;36.50;32.00;23.50
73749;PMS7003;62058;48.406;-4.514;2023-02-15T09:13:52;36.50;30.75;22.00
73749;PMS7003;62058;48.406;-4.514;2023-02-15T09:16:25;37.25;31.00;22.25
73749;PMS7003;62058;48.406;-4.514;2023-02-15T09:18:52;45.00;35.50;25.75
73749;PMS7003;62058;48.406;-4.514;2023-02-15T09:21:19;29.50;24.25;18.50
73749;PMS7003;62058;48.406;-4.514;2023-02-15T09:23:47;36.25;31.50;23.00
73749;PMS7003;62058;48.406;-4.514;2023-02-15T09:26:15;45.75;36.75;25.25
73749;PMS7003;62058;48.406;-4.514;2023-02-15T09:28:42;40.50;32.75;23.00
73749;PMS7003;62058;48.406;-4.514;2023-02-15T09:31:22;37.50;28.75;21.50
73749;PMS7003;62058;48.406;-4.514;2023-02-15T09:33:53;36.75;29.00;21.25
73749;PMS7003;62058;48.406;-4.514;2023-02-15T09:36:26;28.00;28.00;21.75
73749;PMS7003;62058;48.406;-4.514;2023-02-15T09:39:08;37.25;29.75;23.00
73749;PMS7003;62058;48.406;-4.514;2023-02-15T09:44:35;34.50;27.50;21.00
73749;PMS7003;62058;48.406;-4.514;2023-02-15T09:55:28;39.00;29.75;23.00
73749;PMS7003;62058;48.406;-4.514;2023-02-15T09:58:15;37.75;33.00;23.00
73749;PMS7003;62058;48.406;-4.514;2023-02-15T10:17:58;43.75;34.00;23.50
73749;PMS7003;62058;48.406;-4.514;2023-02-15T10:23:38;38.75;30.75;21.75
73749;PMS7003;62058;48.406;-4.514;2023-02-15T10:27:00;34.50;31.00;23.00
73749;PMS7003;62058;48.406;-4.514;2023-02-15T10:29:34;35.25;31.75;21.75
73749;PMS7003;62058;48.406;-4.514;2023-02-15T10:32:16;43.00;30.75;21.50
73749;PMS7003;62058;48.406;-4.514;2023-02-15T10:34:59;33.75;30.00;23.00
73749;PMS7003;62058;48.406;-4.514;2023-02-15T10:51:19;33.75;28.50;21.50
73749;PMS7003;62058;48.406;-4.514;2023-02-15T10:56:36;44.50;32.75;22.00
73749;PMS7003;62058;48.406;-4.514;2023-02-15T10:59:18;28.50;27.00;20.25
73749;PMS7003;62058;48.406;-4.514;2023-02-15T11:02:02;33.75;27.50;21.25
73749;PMS7003;62058;48.406;-4.514;2023-02-15T11:07:26;32.25;27.75;19.75
73749;PMS7003;62058;48.406;-4.514;2023-02-15T11:12:38;26.50;22.75;17.00
73749;PMS7003;62058;48.406;-4.514;2023-02-15T11:17:52;25.75;23.00;18.25
73749;PMS7003;62058;48.406;-4.514;2023-02-15T11:20:30;30.00;26.25;19.25
73749;PMS7003;62058;48.406;-4.514;2023-02-15T11:23:01;33.25;28.25;21.75
73749;PMS7003;62058;48.406;-4.514;2023-02-15T11:25:31;25.25;24.00;19.75
73749;PMS7003;62058;48.406;-4.514;2023-02-15T11:27:58;28.00;24.00;20.00
73749;PMS7003;62058;48.406;-4.514;2023-02-15T11:30:29;27.00;24.50;19.25
73749;PMS7003;62058;48.406;-4.514;2023-02-15T11:33:14;23.50;20.25;14.50
73749;PMS7003;62058;48.406;-4.514;2023-02-15T11:36:15;25.50;21.75;18.00
73749;PMS7003;62058;48.406;-4.514;2023-02-15T11:38:46;32.25;28.25;21.75
73749;PMS7003;62058;48.406;-4.514;2023-02-15T11:41:18;31.75;27.75;21.75
73749;PMS7003;62058;48.406;-4.514;2023-02-15T11:46:57;33.50;27.75;21.00
73749;PMS7003;62058;48.406;-4.514;2023-02-15T11:49:26;31.75;27.75;21.75
73749;PMS7003;62058;48.406;-4.514;2023-02-15T11:51:55;35.50;29.00;22.00
73749;PMS7003;62058;48.406;-4.514;2023-02-15T11:54:29;29.50;27.00;21.00
73749;PMS7003;62058;48.406;-4.514;2023-02-15T11:57:18;28.00;24.50;19.75
73749;PMS7003;62058;48.406;-4.514;2023-02-15T12:00:36;29.25;27.00;21.00
73749;PMS7003;62058;48.406;-4.514;2023-02-15T12:02:50;34.75;27.00;20.50
73749;PMS7003;62058;48.406;-4.514;2023-02-15T12:05:19;32.00;28.25;21.25
73749;PMS7003;62058;48.406;-4.514;2023-02-15T12:08:00;32.75;25.50;20.25
73749;PMS7003;62058;48.406;-4.514;2023-02-15T12:10:29;28.75;26.75;20.50
73749;PMS7003;62058;48.406;-4.514;2023-02-15T12:13:10;29.75;27.25;21.50
73749;PMS7003;62058;48.406;-4.514;2023-02-15T12:15:44;30.00;29.25;23.00
73749;PMS7003;62058;48.406;-4.514;2023-02-15T12:21:24;28.00;27.00;22.50
73749;PMS7003;62058;48.406;-4.514;2023-02-15T12:24:18;26.75;24.75;19.75
73749;PMS7003;62058;48.406;-4.514;2023-02-15T12:27:04;43.50;29.75;22.75
73749;PMS7003;62058;48.406;-4.514;2023-02-15T12:29:40;32.25;27.75;21.25
73749;PMS7003;62058;48.406;-4.514;2023-02-15T12:32:10;27.75;24.75;20.75
73749;PMS7003;62058;48.406;-4.514;2023-02-15T12:34:43;32.75;26.50;22.00
73749;PMS7003;62058;48.406;-4.514;2023-02-15T12:37:19;34.75;28.00;22.50
73749;PMS7003;62058;48.406;-4.514;2023-02-15T12:39:52;27.50;21.25;17.25
73749;PMS7003;62058;48.406;-4.514;2023-02-15T12:42:19;25.75;23.50;20.00
73749;PMS7003;62058;48.406;-4.514;2023-02-15T12:47:20;22.25;17.50;14.50
73749;PMS7003;62058;48.406;-4.514;2023-02-15T12:53:02;21.50;13.75;12.00
73749;PMS7003;62058;48.406;-4.514;2023-02-15T12:55:38;16.25;10.25;9.00
73749;PMS7003;62058;48.406;-4.514;2023-02-15T12:58:07;13.50;8.25;7.50
73749;PMS7003;62058;48.406;-4.514;2023-02-15T13:00:39;9.50;6.25;5.75
73749;PMS7003;62058;48.406;-4.514;2023-02-15T13:03:04;15.75;9.25;8.25
73749;PMS7003;62058;48.406;-4.514;2023-02-15T13:05:41;15.00;12.00;9.25
73749;PMS7003;62058;48.406;-4.514;2023-02-15T13:08:14;11.25;8.75;7.75
73749;PMS7003;62058;48.406;-4.514;2023-02-15T13:10:51;15.25;11.75;10.25
73749;PMS7003;62058;48.406;-4.514;2023-02-15T13:13:24;14.25;9.75;7.00
73749;PMS7003;62058;48.406;-4.514;2023-02-15T13:15:53;13.00;10.50;9.50
73749;PMS7003;62058;48.406;-4.514;2023-02-15T13:20:56;11.50;7.50;4.50
73749;PMS7003;62058;48.406;-4.514;2023-02-15T13:23:28;16.75;11.00;8.75
73749;PMS7003;62058;48.406;-4.514;2023-02-15T13:25:56;15.50;12.75;9.75
73749;PMS7003;62058;48.406;-4.514;2023-02-15T13:28:26;16.00;12.50;10.50
73749;PMS7003;62058;48.406;-4.514;2023-02-15T13:31:03;6.50;3.00;2.00
73749;PMS7003;62058;48.406;-4.514;2023-02-15T13:33:33;17.75;8.75;7.75
73749;PMS7003;62058;48.406;-4.514;2023-02-15T13:36:14;11.00;8.25;7.25
73749;PMS7003;62058;48.406;-4.514;2023-02-15T13:38:58;5.00;3.75;3.75
73749;PMS7003;62058;48.406;-4.514;2023-02-15T13:41:30;7.25;6.00;5.25
73749;PMS7003;62058;48.406;-4.514;2023-02-15T13:44:09;6.00;4.75;4.00
73749;PMS7003;62058;48.406;-4.514;2023-02-15T13:46:55;12.00;6.75;6.25
73749;PMS7003;62058;48.406;-4.514;2023-02-15T13:49:50;12.75;9.50;7.75
73749;PMS7003;62058;48.406;-4.514;2023-02-15T13:53:09;5.75;5.75;5.25
73749;PMS7003;62058;48.406;-4.514;2023-02-15T14:01:31;14.75;7.50;6.75
73749;PMS7003;62058;48.406;-4.514;2023-02-15T14:12:26;6.25;5.75;5.75
73749;PMS7003;62058;48.406;-4.514;2023-02-15T14:23:24;10.50;6.50;5.75
73749;PMS7003;62058;48.406;-4.514;2023-02-15T14:25:58;9.00;6.00;5.50
73749;PMS7003;62058;48.406;-4.514;2023-02-15T14:31:08;9.50;8.25;7.50
73749;PMS7003;62058;48.406;-4.514;2023-02-15T14:36:06;9.25;8.25;7.50
73749;PMS7003;62058;48.406;-4.514;2023-02-15T14:38:39;10.75;8.00;7.75
73749;PMS7003;62058;48.406;-4.514;2023-02-15T14:46:58;17.25;10.25;8.75
73749;PMS7003;62058;48.406;-4.514;2023-02-15T14:49:32;16.75;9.75;8.25
73749;PMS7003;62058;48.406;-4.514;2023-02-15T14:52:01;4.50;4.50;4.25
73749;PMS7003;62058;48.406;-4.514;2023-02-15T14:59:27;10.25;8.50;8.00
73749;PMS7003;62058;48.406;-4.514;2023-02-15T15:10:00;8.25;8.25;7.75
73749;PMS7003;62058;48.406;-4.514;2023-02-15T15:12:41;8.25;8.25;7.50
73749;PMS7003;62058;48.406;-4.514;2023-02-15T15:15:07;8.25;6.75;5.25
73749;PMS7003;62058;48.406;-4.514;2023-02-15T15:20:04;13.00;11.25;9.25
73749;PMS7003;62058;48.406;-4.514;2023-02-15T15:22:32;9.75;7.25;4.00
73749;PMS7003;62058;48.406;-4.514;2023-02-15T15:24:59;14.00;9.75;8.75
73749;PMS7003;62058;48.406;-4.514;2023-02-15T15:27:42;18.50;9.50;7.50
73749;PMS7003;62058;48.406;-4.514;2023-02-15T15:33:29;10.25;8.00;7.75
73749;PMS7003;62058;48.406;-4.514;2023-02-15T15:47:02;5.50;4.75;2.25
73749;PMS7003;62058;48.406;-4.514;2023-02-15T15:49:47;10.25;8.50;8.00
73749;PMS7003;62058;48.406;-4.514;2023-02-15T15:52:17;17.00;10.00;8.25
73749;PMS7003;62058;48.406;-4.514;2023-02-15T15:54:46;12.75;11.50;10.50
73749;PMS7003;62058;48.406;-4.514;2023-02-15T15:57:15;9.00;5.50;2.75
73749;PMS7003;62058;48.406;-4.514;2023-02-15T15:59:46;11.25;11.25;8.00
73749;PMS7003;62058;48.406;-4.514;2023-02-15T16:02:13;14.25;9.75;8.25
73749;PMS7003;62058;48.406;-4.514;2023-02-15T16:04:43;13.75;9.75;8.50
73749;PMS7003;62058;48.406;-4.514;2023-02-15T16:12:37;14.25;8.50;7.75
73749;PMS7003;62058;48.406;-4.514;2023-02-15T16:15:14;11.50;9.00;8.25
73749;PMS7003;62058;48.406;-4.514;2023-02-15T16:17:41;13.50;11.00;8.00
73749;PMS7003;62058;48.406;-4.514;2023-02-15T16:22:46;12.50;9.50;7.25
73749;PMS7003;62058;48.406;-4.514;2023-02-15T16:28:05;10.25;8.25;6.50
73749;PMS7003;62058;48.406;-4.514;2023-02-15T16:30:32;12.50;11.50;8.75
73749;PMS7003;62058;48.406;-4.514;2023-02-15T16:35:33;17.50;8.75;7.75
73749;PMS7003;62058;48.406;-4.514;2023-02-15T16:38:00;11.50;11.50;9.75
73749;PMS7003;62058;48.406;-4.514;2023-02-15T16:43:06;12.50;10.50;9.50
73749;PMS7003;62058;48.406;-4.514;2023-02-15T16:45:39;9.25;8.50;7.75
73749;PMS7003;62058;48.406;-4.514;2023-02-15T16:48:10;12.00;12.00;11.00
73749;PMS7003;62058;48.406;-4.514;2023-02-15T16:50:39;18.50;13.00;10.50
73749;PMS7003;62058;48.406;-4.514;2023-02-15T16:53:14;5.75;5.75;5.25
73749;PMS7003;62058;48.406;-4.514;2023-02-15T16:55:48;14.25;9.75;8.75
73749;PMS7003;62058;48.406;-4.514;2023-02-15T16:58:16;13.25;12.50;10.75
73749;PMS7003;62058;48.406;-4.514;2023-02-15T17:00:45;15.50;12.50;10.75
73749;PMS7003;62058;48.406;-4.514;2023-02-15T17:10:45;12.25;8.50;8.25